Home > Products > Valid Products > TAF

000
FTUS42 KCHS 190528
TAFSAV
TAF
KSAV 190528Z 1906/2006 00000KT P6SM SCT015 BKN090
     FM190800 VRB03KT 6SM BR VCSH SCT006 BKN012
     FM191200 17008KT P6SM VCSH SCT010 BKN020
     FM191500 19010KT P6SM SCT025 BKN060
      TEMPO 1919/1923 4SM SHRA BR SCT008 BKN015=



000
FTUS42 KCHS 190528
TAFCHS
TAF
KCHS 190528Z 1906/2006 VRB03KT P6SM SCT006 BKN040
     FM190900 VRB03KT 4SM BR VCSH SCT004 OVC010
     FM191500 17008KT 5SM SHRA BR SCT015 BKN030
     FM191800 18012KT P6SM SCT025 BKN035
      TEMPO 1920/1924 4SM SHRA BR SCT008 BKN015=



000
FTUS42 KCHS 190328 AAB
TAFCHS
TAF AMD
KCHS 190328Z 1903/1924 13005KT P6SM SCT015 BKN060
     FM190600 16004KT P6SM SCT006 BKN014
     FM190900 VRB03KT 4SM BR SCT004 BKN008
     FM191300 15006KT P6SM SCT008 BKN015
     FM191500 17008KT 4SM -RA BR SCT015 BKN030
     FM191800 18010KT P6SM SCT025 BKN040=



000
FTUS42 KCHS 190328 AAB
TAFCHS
TAF AMD
KCHS 190328Z 1903/1924 13005KT P6SM SCT015 BKN060
     FM190600 16004KT P6SM SCT006 BKN014
     FM190900 VRB03KT 4SM BR SCT004 BKN008
     FM191300 15006KT P6SM SCT008 BKN015
     FM191500 17008KT 4SM -RA BR SCT015 BKN030
     FM191800 18010KT P6SM SCT025 BKN040=



000
FTUS42 KCHS 190326 AAA
TAFSAV
TAF AMD
KSAV 190326Z 1903/1924 16005KT P6SM SCT030 BKN100
     FM190400 16004KT P6SM SCT015 BKN040
      TEMPO 1904/1905 4SM -RA BR SCT015 BKN025
     FM190700 VRB03KT 6SM BR SCT006 BKN012
     FM191200 17008KT P6SM SCT010 BKN020
     FM191500 19010KT P6SM SCT025 BKN060=



000
FTUS42 KCHS 182324
TAFSAV
TAF
KSAV 182324Z 1900/1924 10005KT P6SM SCT030 BKN100
     FM190300 VRB03KT P6SM SCT015 BKN040
      TEMPO 1904/1907 BKN015
     FM190700 VRB03KT 6SM BR SCT006 BKN012
     FM191200 17008KT P6SM SCT010 BKN020
     FM191500 19010KT P6SM SCT025 BKN060=



000
FTUS42 KCHS 182324
TAFCHS
TAF
KCHS 182324Z 1900/1924 13005KT P6SM VCSH SCT015 BKN060
     FM190300 VRB03KT P6SM SCT006 BKN014
     FM190900 VRB03KT 4SM BR SCT004 BKN008
     FM191300 15006KT P6SM SCT008 BKN015
     FM191500 17008KT 4SM -RA BR SCT015 BKN030
     FM191800 18010KT P6SM SCT025 BKN040=



000
FTUS42 KCHS 181923 AAB
TAFCHS
TAF AMD
KCHS 181923Z 1819/1918 13005KT P6SM VCSH SCT025 BKN040
     FM190800 11004KT 4SM SHRA BR SCT005 OVC010
     FM191200 15008KT P6SM VCSH BKN020=



000
FTUS42 KCHS 181922 AAA
TAFSAV
TAF AMD
KSAV 181922Z 1819/1918 14005KT P6SM VCSH BKN020
     FM182000 15005KT P6SM VCSH SCT020 BKN035
     FM190600 12004KT 3SM SHRA BR BKN005
     FM191200 17008KT P6SM VCSH SCT010 BKN020=



000
FTUS42 KCHS 181739
TAFCHS
TAF
KCHS 181739Z 1818/1918 12005KT P6SM VCSH BKN015
      TEMPO 1818/1820 2SM RA BR BKN012
     FM182000 14006KT P6SM SCT020 BKN050
     FM190800 11004KT 4SM SHRA BR SCT005 OVC010
     FM191200 15008KT P6SM VCSH BKN020=



000
FTUS42 KCHS 181739
TAFSAV
TAF
KSAV 181739Z 1818/1918 14005KT P6SM VCSH BKN015
      TEMPO 1818/1820 2SM RA BR BKN010
     FM182000 15005KT P6SM VCSH SCT020 BKN035
     FM190600 12004KT 3SM SHRA BR BKN005
     FM191200 17008KT P6SM VCSH SCT010 BKN020=



000
FTUS42 KCHS 181739
TAFCHS
TAF
KCHS 181739Z 1818/1918 12005KT P6SM VCSH BKN015
      TEMPO 1818/1820 2SM RA BR BKN012
     FM182000 14006KT P6SM SCT020 BKN050
     FM190800 11004KT 4SM SHRA BR SCT005 OVC010
     FM191200 15008KT P6SM VCSH BKN020=



000
FTUS42 KCHS 181739
TAFSAV
TAF
KSAV 181739Z 1818/1918 14005KT P6SM VCSH BKN015
      TEMPO 1818/1820 2SM RA BR BKN010
     FM182000 15005KT P6SM VCSH SCT020 BKN035
     FM190600 12004KT 3SM SHRA BR BKN005
     FM191200 17008KT P6SM VCSH SCT010 BKN020=



000
FTUS42 KCHS 181626 AAA
TAFCHS
TAF AMD
KCHS 181626Z 1816/1912 VRB05KT P6SM VCSH SCT009 BKN015
      TEMPO 1816/1818 2SM RA BR BKN008
     FM181900 14007KT P6SM SCT030 BKN120
     FM190600 VRB03KT 5SM BR VCSH SCT005 OVC010=



000
FTUS42 KCHS 181131
TAFCHS
TAF
KCHS 181131Z 1812/1912 VRB03KT 5SM BR BKN003 OVC035
      TEMPO 1812/1814 3SM -RA BR SCT005 OVC015
     FM181500 VRB05KT P6SM VCSH SCT009 BKN025
     FM181900 14007KT P6SM SCT030 BKN120
     FM190600 VRB03KT 5SM BR VCSH SCT005 OVC010=



000
FTUS42 KCHS 181131
TAFSAV
TAF
KSAV 181131Z 1812/1912 VRB03KT 3SM BR BKN005 OVC012
     FM181400 VRB05KT P6SM BKN025 BKN090
     FM181600 16006KT P6SM VCSH BKN035
     FM190000 15004KT 6SM BR SCT008 OVC140
     FM190600 17003KT 5SM BR VCSH BKN005=



000
FTUS42 KCHS 181040 AAC
TAFCHS
TAF AMD
KCHS 181040Z 1811/1906 VRB03KT P6SM VCSH OVC003
      TEMPO 1811/1814 4SM -RA BR SCT005 OVC012
     FM181500 VRB05KT P6SM SCT020 BKN100=



000
FTUS42 KCHS 180913 AAB
TAFSAV
TAF AMD
KSAV 180913Z 1809/1906 VRB03KT 6SM BR VCSH BKN003 OVC012
     FM181300 VRB05KT P6SM BKN025 BKN090
     FM181600 16006KT P6SM BKN040=



000
FTUS42 KCHS 180650 AAA
TAFSAV
TAF AMD
KSAV 180650Z 1807/1906 VRB03KT 6SM -RA BR SCT003 OVC015
      TEMPO 1807/1809 2SM RA BR BKN004 OVC010
     FM181000 VRB03KT 4SM BR VCSH BKN004 OVC012
     FM181300 VRB05KT P6SM BKN025 BKN090
     FM181600 16006KT P6SM BKN040=



000
FTUS42 KCHS 180650 AAA
TAFSAV
TAF AMD
KSAV 180650Z 1807/1906 VRB03KT 6SM -RA BR SCT003 OVC015
      TEMPO 1807/1809 2SM RA BR BKN004 OVC010
     FM181000 VRB03KT 4SM BR VCSH BKN004 OVC012
     FM181300 VRB05KT P6SM BKN025 BKN090
     FM181600 16006KT P6SM BKN040=



000
FTUS42 KCHS 180532
TAFCHS
TAF
KCHS 180532Z 1806/1906 00000KT P6SM VCSH SCT006 OVC080
     FM180800 00000KT 6SM -RA BR SCT012 BKN035
      TEMPO 1808/1812 4SM RA BR SCT005 OVC012
     FM181300 VRB05KT P6SM SCT020 BKN100=



000
FTUS42 KCHS 180532
TAFSAV
TAF
KSAV 180532Z 1806/1906 VRB03KT 6SM -RA BR BKN020 OVC080
      TEMPO 1806/1809 2SM RA BR SCT006 OVC015
     FM181000 VRB03KT 4SM BR VCSH BKN006 OVC012
     FM181300 VRB05KT P6SM BKN025 BKN090
     FM181600 16006KT P6SM BKN040=



000
FTUS42 KCHS 180532
TAFCHS
TAF
KCHS 180532Z 1806/1906 00000KT P6SM VCSH SCT006 OVC080
     FM180800 00000KT 6SM -RA BR SCT012 BKN035
      TEMPO 1808/1812 4SM RA BR SCT005 OVC012
     FM181300 VRB05KT P6SM SCT020 BKN100=



000
FTUS42 KCHS 180532
TAFSAV
TAF
KSAV 180532Z 1806/1906 VRB03KT 6SM -RA BR BKN020 OVC080
      TEMPO 1806/1809 2SM RA BR SCT006 OVC015
     FM181000 VRB03KT 4SM BR VCSH BKN006 OVC012
     FM181300 VRB05KT P6SM BKN025 BKN090
     FM181600 16006KT P6SM BKN040=



000
FTUS42 KCHS 180228 AAA
TAFSAV
TAF AMD
KSAV 180228Z 1802/1824 VRB03KT P6SM SCT018 BKN060
      TEMPO 1802/1805 BKN018
     FM180500 00000KT 4SM -RA BR BKN025
     FM180800 00000KT P6SM SCT008 BKN012
     FM181500 16005KT P6SM SCT020 SCT050=



000
FTUS42 KCHS 180228 AAA
TAFSAV
TAF AMD
KSAV 180228Z 1802/1824 VRB03KT P6SM SCT018 BKN060
      TEMPO 1802/1805 BKN018
     FM180500 00000KT 4SM -RA BR BKN025
     FM180800 00000KT P6SM SCT008 BKN012
     FM181500 16005KT P6SM SCT020 SCT050=



000
FTUS42 KCHS 172326
TAFCHS
TAF
KCHS 172326Z 1800/1824 36004KT P6SM VCSH SCT025 BKN100
      TEMPO 1800/1802 BKN020
     FM180300 00000KT P6SM SCT006 BKN040
     FM180900 00000KT P6SM SCT005 BKN015
     FM181400 13005KT P6SM SCT020 SCT060=



000
FTUS42 KCHS 172326
TAFSAV
TAF
KSAV 172326Z 1800/1824 VRB03KT P6SM SCT028 BKN100
     FM180300 00000KT 5SM -SHRA BR BKN025
     FM180600 00000KT P6SM SCT008 BKN015
     FM181500 16005KT P6SM SCT020 SCT050=



000
FTUS42 KCHS 172326
TAFCHS
TAF
KCHS 172326Z 1800/1824 36004KT P6SM VCSH SCT025 BKN100
      TEMPO 1800/1802 BKN020
     FM180300 00000KT P6SM SCT006 BKN040
     FM180900 00000KT P6SM SCT005 BKN015
     FM181400 13005KT P6SM SCT020 SCT060=



000
FTUS42 KCHS 172326
TAFSAV
TAF
KSAV 172326Z 1800/1824 VRB03KT P6SM SCT028 BKN100
     FM180300 00000KT 5SM -SHRA BR BKN025
     FM180600 00000KT P6SM SCT008 BKN015
     FM181500 16005KT P6SM SCT020 SCT050=



000
FTUS42 KCHS 172210 AAB
TAFSAV
TAF AMD
KSAV 172210Z 1722/1818 34004KT P6SM SCT028 BKN100
     FM180300 VRB02KT P6SM VCSH SCT007 BKN015
     FM180700 VRB02KT 4SM BR BKN005
     FM181500 12005KT P6SM SCT008 BKN015=



000
FTUS42 KCHS 172206 AAB
TAFCHS
TAF AMD
KCHS 172206Z 1722/1818 33005KT P6SM VCSH SCT012 BKN022
      TEMPO 1722/1724 BKN012
     FM180300 VRB03KT 5SM BR VCSH SCT004 OVC010
     FM180800 VRB03KT 4SM BR VCSH BKN006
     FM181400 11005KT P6SM SCT009 BKN020=



000
FTUS42 KCHS 171942 AAA
TAFSAV
TAF AMD
KSAV 171942Z 1720/1818 34006KT P6SM BKN025
      TEMPO 1720/1722 BKN018
     FM180300 VRB02KT P6SM VCSH SCT007 BKN015
     FM180700 VRB02KT 4SM BR BKN005
     FM181500 12005KT P6SM SCT008 BKN015=



000
FTUS42 KCHS 171942 AAA
TAFSAV
TAF AMD
KSAV 171942Z 1720/1818 34006KT P6SM BKN025
      TEMPO 1720/1722 BKN018
     FM180300 VRB02KT P6SM VCSH SCT007 BKN015
     FM180700 VRB02KT 4SM BR BKN005
     FM181500 12005KT P6SM SCT008 BKN015=



000
FTUS42 KCHS 171730
TAFSAV
TAF
KSAV 171730Z 1718/1818 34006KT P6SM SCT020 BKN050
     FM180300 VRB02KT P6SM VCSH BKN020
     FM180700 VRB02KT 4SM BR BKN005
     FM181500 12005KT P6SM SCT008 BKN015=



000
FTUS42 KCHS 171730
TAFCHS
TAF
KCHS 171730Z 1718/1818 01006KT P6SM BKN008 OVC015
     FM171930 35006KT P6SM SCT010 BKN020
     FM172100 VRB05KT P6SM -SHRA SCT015 OVC025
     FM180300 VRB03KT 5SM BR VCSH SCT004 OVC010
     FM180800 VRB03KT 4SM BR VCSH BKN006
     FM181400 11005KT P6SM SCT009 BKN020=



000
FTUS42 KCHS 171730
TAFSAV
TAF
KSAV 171730Z 1718/1818 34006KT P6SM SCT020 BKN050
     FM180300 VRB02KT P6SM VCSH BKN020
     FM180700 VRB02KT 4SM BR BKN005
     FM181500 12005KT P6SM SCT008 BKN015=



000
FTUS42 KCHS 171730
TAFCHS
TAF
KCHS 171730Z 1718/1818 01006KT P6SM BKN008 OVC015
     FM171930 35006KT P6SM SCT010 BKN020
     FM172100 VRB05KT P6SM -SHRA SCT015 OVC025
     FM180300 VRB03KT 5SM BR VCSH SCT004 OVC010
     FM180800 VRB03KT 4SM BR VCSH BKN006
     FM181400 11005KT P6SM SCT009 BKN020=



000
FTUS42 KCHS 171302 AAA
TAFSAV
TAF AMD
KSAV 171302Z 1713/1812 33005KT 6SM -DZ BR OVC004
      TEMPO 1713/1715 2SM -RA BR OVC003
     FM171500 34007KT P6SM OVC007
     FM171900 VRB05KT P6SM VCSH BKN012
     FM172100 VRB03KT P6SM -SHRA SCT005 BKN015
     FM180300 VRB02KT 4SM BR VCSH BKN005=



000
FTUS42 KCHS 171135
TAFCHS
TAF
KCHS 171135Z 1712/1812 35007KT 2SM -RA BR OVC003
     FM171500 01008KT P6SM VCSH BKN006
     FM171800 36007KT P6SM VCSH BKN018
     FM172100 VRB05KT P6SM -SHRA SCT005 OVC012
     FM180300 VRB03KT 5SM BR VCSH SCT004 OVC010=



000
FTUS42 KCHS 171135
TAFSAV
TAF
KSAV 171135Z 1712/1812 33005KT 6SM -DZ BR OVC004
     FM171400 34007KT P6SM OVC007
     FM171900 VRB05KT P6SM VCSH BKN012
     FM172100 VRB03KT P6SM -SHRA SCT005 BKN015
     FM180300 VRB02KT 4SM BR VCSH BKN005=



000
FTUS42 KCHS 170939 AAA
TAFSAV
TAF AMD
KSAV 170939Z 1710/1806 33005KT 2SM BR OVC002
     FM171400 34005KT P6SM OVC005
     FM171700 36008KT P6SM VCSH BKN015
     FM180000 VRB04KT P6SM -SHRA SCT005 OVC010=



000
FTUS42 KCHS 170648 AAA
TAFCHS
TAF AMD
KCHS 170648Z 1707/1806 35005KT 3SM -DZ BR OVC003
      TEMPO 1708/1712 1SM BR OVC002
     FM171500 35008KT P6SM VCSH BKN008
     FM171800 36007KT P6SM VCSH BKN015
     FM172100 VRB05KT P6SM -SHRA SCT005 OVC012=



000
FTUS42 KCHS 170538
TAFSAV
TAF
KSAV 170538Z 1706/1806 35005KT P6SM OVC004
      TEMPO 1710/1712 3SM BR OVC002
     FM171700 36008KT P6SM VCSH BKN015
     FM180000 VRB04KT P6SM -SHRA SCT005 OVC010=



000
FTUS42 KCHS 170538
TAFCHS
TAF
KCHS 170538Z 1706/1806 35007KT 6SM -DZ BR OVC003
      TEMPO 1708/1712 3SM BR OVC002
     FM171500 35008KT P6SM VCSH BKN008
     FM171800 36007KT P6SM VCSH BKN015
     FM172100 VRB05KT P6SM -SHRA SCT005 OVC012=



000
FTUS42 KCHS 170211 AAA
TAFCHS
TAF AMD
KCHS 170211Z 1702/1724 35009KT 5SM -DZ BR BKN004
     FM171500 33009KT P6SM VCSH BKN007
     FM172300 02006KT P6SM SCT007 OVC012=



000
FTUS42 KCHS 170211 AAA
TAFCHS
TAF AMD
KCHS 170211Z 1702/1724 35009KT 5SM -DZ BR BKN004
     FM171500 33009KT P6SM VCSH BKN007
     FM172300 02006KT P6SM SCT007 OVC012=



000
FTUS42 KCHS 162338
TAFCHS
TAF
KCHS 162338Z 1700/1724 35009KT 5SM -DZ BR SCT004 OVC007
     FM170500 36007KT 6SM BR BKN003 OVC005
     FM171500 33009KT P6SM VCSH BKN007
     FM172300 02006KT P6SM SCT007 OVC012=



000
FTUS42 KCHS 162338
TAFSAV
TAF
KSAV 162338Z 1700/1724 36008KT P6SM BKN007
     FM170700 36006KT 5SM BR BKN003 OVC005
     FM171600 36008KT P6SM VCSH BKN007
     FM172300 33005KT P6SM SCT007 OVC012=



000
FTUS42 KCHS 162338
TAFCHS
TAF
KCHS 162338Z 1700/1724 35009KT 5SM -DZ BR SCT004 OVC007
     FM170500 36007KT 6SM BR BKN003 OVC005
     FM171500 33009KT P6SM VCSH BKN007
     FM172300 02006KT P6SM SCT007 OVC012=



000
FTUS42 KCHS 162338
TAFSAV
TAF
KSAV 162338Z 1700/1724 36008KT P6SM BKN007
     FM170700 36006KT 5SM BR BKN003 OVC005
     FM171600 36008KT P6SM VCSH BKN007
     FM172300 33005KT P6SM SCT007 OVC012=



000
FTUS42 KCHS 162222 AAB
TAFCHS
TAF AMD
KCHS 162222Z 1622/1718 35010KT P6SM SCT004 OVC008
      TEMPO 1622/1624 3SM -DZ OVC004
     FM170300 01008KT P6SM SCT003 OVC006
     FM171500 02009KT P6SM OVC012=



000
FTUS42 KCHS 162217 AAA
TAFSAV
TAF AMD
KSAV 162217Z 1622/1718 36008KT P6SM SCT008 BKN015
     FM170100 01006KT P6SM OVC008
     FM171500 02008KT P6SM OVC012=



000
FTUS42 KCHS 161737
TAFSAV
TAF
KSAV 161737Z 1618/1718 03008KT P6SM OVC008
      TEMPO 1619/1622 OVC012
     FM170300 01005KT P6SM OVC008
     FM171500 02008KT P6SM OVC012=



000
FTUS42 KCHS 161737
TAFCHS
TAF
KCHS 161737Z 1618/1718 35010KT P6SM OVC008
      TEMPO 1619/1622 OVC012
     FM170300 01008KT P6SM OVC006
     FM171500 02009KT P6SM OVC012=



000
FTUS42 KCHS 161608 AAB
TAFCHS
TAF AMD
KCHS 161608Z 1616/1712 02010G16KT P6SM SCT008 OVC013
      TEMPO 1616/1618 OVC008
     FM170300 01008KT P6SM OVC008=



000
FTUS42 KCHS 161608 AAB
TAFCHS
TAF AMD
KCHS 161608Z 1616/1712 02010G16KT P6SM SCT008 OVC013
      TEMPO 1616/1618 OVC008
     FM170300 01008KT P6SM OVC008=



000
FTUS42 KCHS 161557 AAA
TAFSAV
TAF AMD
KSAV 161557Z 1616/1712 03008KT P6SM OVC008
     FM161730 36010KT P6SM OVC014
     FM170300 01005KT P6SM OVC008=



000
FTUS42 KCHS 161135
TAFSAV
TAF
KSAV 161135Z 1612/1712 04008KT P6SM OVC008
     FM161600 36010KT P6SM OVC018
     FM170300 01005KT P6SM OVC008=



000
FTUS42 KCHS 161135
TAFCHS
TAF
KCHS 161135Z 1612/1712 02010G15KT P6SM OVC011
      TEMPO 1612/1615 OVC009
     FM161600 03012G17KT P6SM SCT008 OVC013
     FM170300 01008KT P6SM OVC008=



000
FTUS42 KCHS 161003 AAB
TAFCHS
TAF AMD
KCHS 161003Z 1610/1706 02011KT P6SM VCSH OVC010
     FM161100 04010KT P6SM OVC009
     FM161600 03012G18KT P6SM SCT008 OVC014
     FM170100 03008KT P6SM OVC007=



    US Dept of Commerce
    National Oceanic and Atmospheric Administration
    National Weather Service
    1325 East West Highway
    Silver Spring, MD 20910
    Page Author: NWS Internet Services Team
Disclaimer
Information Quality
Credits
Glossary
Privacy Policy
Freedom of Information Act (FOIA)
About Us
Career Opportunities